sensor_id;sensor_type;location;lat;lon;timestamp;temperature;humidity
79698;SHT31;69168;42.708;23.286;2023-08-21T00:00:53;24.57;49.33
79698;SHT31;69168;42.708;23.286;2023-08-21T00:03:19;24.70;49.29
79698;SHT31;69168;42.708;23.286;2023-08-21T00:05:47;24.64;49.94
79698;SHT31;69168;42.708;23.286;2023-08-21T00:08:16;24.67;49.94
79698;SHT31;69168;42.708;23.286;2023-08-21T00:10:41;24.68;50.20
79698;SHT31;69168;42.708;23.286;2023-08-21T00:13:07;24.70;49.69
79698;SHT31;69168;42.708;23.286;2023-08-21T00:15:33;24.71;49.74
79698;SHT31;69168;42.708;23.286;2023-08-21T00:17:58;24.75;49.38
79698;SHT31;69168;42.708;23.286;2023-08-21T00:20:26;24.43;49.96
79698;SHT31;69168;42.708;23.286;2023-08-21T00:22:52;24.73;49.29
79698;SHT31;69168;42.708;23.286;2023-08-21T00:25:17;24.74;49.00
79698;SHT31;69168;42.708;23.286;2023-08-21T00:27:45;24.75;49.39
79698;SHT31;69168;42.708;23.286;2023-08-21T00:30:14;24.84;48.69
79698;SHT31;69168;42.708;23.286;2023-08-21T00:32:45;24.71;48.90
79698;SHT31;69168;42.708;23.286;2023-08-21T00:35:11;24.70;48.97
79698;SHT31;69168;42.708;23.286;2023-08-21T00:37:36;24.68;48.90
79698;SHT31;69168;42.708;23.286;2023-08-21T00:40:02;24.57;49.17
79698;SHT31;69168;42.708;23.286;2023-08-21T00:42:28;24.61;49.12
79698;SHT31;69168;42.708;23.286;2023-08-21T00:44:53;24.64;49.68
79698;SHT31;69168;42.708;23.286;2023-08-21T00:47:19;24.60;50.95
79698;SHT31;69168;42.708;23.286;2023-08-21T00:49:48;24.63;50.85
79698;SHT31;69168;42.708;23.286;2023-08-21T00:52:15;24.56;50.89
79698;SHT31;69168;42.708;23.286;2023-08-21T00:54:43;24.54;51.32
79698;SHT31;69168;42.708;23.286;2023-08-21T00:57:10;24.49;51.03
79698;SHT31;69168;42.708;23.286;2023-08-21T00:59:36;24.46;51.12
79698;SHT31;69168;42.708;23.286;2023-08-21T01:02:02;24.39;51.45
79698;SHT31;69168;42.708;23.286;2023-08-21T01:04:28;24.41;51.28
79698;SHT31;69168;42.708;23.286;2023-08-21T01:06:54;24.39;49.72
79698;SHT31;69168;42.708;23.286;2023-08-21T01:09:39;24.23;50.80
79698;SHT31;69168;42.708;23.286;2023-08-21T01:12:31;24.19;51.39
79698;SHT31;69168;42.708;23.286;2023-08-21T01:15:04;24.01;51.60
79698;SHT31;69168;42.708;23.286;2023-08-21T01:17:36;24.18;51.13
79698;SHT31;69168;42.708;23.286;2023-08-21T01:20:03;23.84;52.25
79698;SHT31;69168;42.708;23.286;2023-08-21T01:22:41;23.95;52.47
79698;SHT31;69168;42.708;23.286;2023-08-21T01:25:13;23.99;52.52
79698;SHT31;69168;42.708;23.286;2023-08-21T01:27:47;23.98;52.95
79698;SHT31;69168;42.708;23.286;2023-08-21T01:30:13;23.86;53.41
79698;SHT31;69168;42.708;23.286;2023-08-21T01:32:48;24.01;53.01
79698;SHT31;69168;42.708;23.286;2023-08-21T01:35:16;23.94;53.14
79698;SHT31;69168;42.708;23.286;2023-08-21T01:37:42;23.97;52.86
79698;SHT31;69168;42.708;23.286;2023-08-21T01:40:11;24.02;53.08
79698;SHT31;69168;42.708;23.286;2023-08-21T01:42:39;24.01;52.81
79698;SHT31;69168;42.708;23.286;2023-08-21T01:45:05;23.94;52.79
79698;SHT31;69168;42.708;23.286;2023-08-21T01:47:34;23.88;53.52
79698;SHT31;69168;42.708;23.286;2023-08-21T01:49:59;23.73;54.07
79698;SHT31;69168;42.708;23.286;2023-08-21T01:52:25;23.57;54.28
79698;SHT31;69168;42.708;23.286;2023-08-21T01:54:50;23.65;54.20
79698;SHT31;69168;42.708;23.286;2023-08-21T01:57:16;23.63;54.53
79698;SHT31;69168;42.708;23.286;2023-08-21T01:59:41;23.68;54.04
79698;SHT31;69168;42.708;23.286;2023-08-21T02:02:07;23.75;54.04
79698;SHT31;69168;42.708;23.286;2023-08-21T02:04:32;23.71;54.44
79698;SHT31;69168;42.708;23.286;2023-08-21T02:06:58;23.63;54.66
79698;SHT31;69168;42.708;23.286;2023-08-21T02:09:23;23.65;54.40
79698;SHT31;69168;42.708;23.286;2023-08-21T02:11:49;23.74;54.77
79698;SHT31;69168;42.708;23.286;2023-08-21T02:14:14;23.63;54.89
79698;SHT31;69168;42.708;23.286;2023-08-21T02:16:40;23.60;54.97
79698;SHT31;69168;42.708;23.286;2023-08-21T02:19:05;23.55;55.14
79698;SHT31;69168;42.708;23.286;2023-08-21T02:21:34;23.23;56.21
79698;SHT31;69168;42.708;23.286;2023-08-21T02:24:02;23.40;55.58
79698;SHT31;69168;42.708;23.286;2023-08-21T02:26:27;23.40;55.35
79698;SHT31;69168;42.708;23.286;2023-08-21T02:28:53;23.51;55.09
79698;SHT31;69168;42.708;23.286;2023-08-21T02:31:19;23.49;54.96
79698;SHT31;69168;42.708;23.286;2023-08-21T02:33:47;23.42;54.99
79698;SHT31;69168;42.708;23.286;2023-08-21T02:36:15;23.05;56.15
79698;SHT31;69168;42.708;23.286;2023-08-21T02:38:40;23.22;55.73
79698;SHT31;69168;42.708;23.286;2023-08-21T02:41:06;23.05;55.77
79698;SHT31;69168;42.708;23.286;2023-08-21T02:43:31;22.78;56.47
79698;SHT31;69168;42.708;23.286;2023-08-21T02:45:57;22.81;56.48
79698;SHT31;69168;42.708;23.286;2023-08-21T02:48:23;22.91;56.21
79698;SHT31;69168;42.708;23.286;2023-08-21T02:50:48;22.91;56.33
79698;SHT31;69168;42.708;23.286;2023-08-21T02:53:14;23.05;55.96
79698;SHT31;69168;42.708;23.286;2023-08-21T02:55:39;23.18;55.74
79698;SHT31;69168;42.708;23.286;2023-08-21T02:58:05;22.87;56.57
79698;SHT31;69168;42.708;23.286;2023-08-21T03:00:30;22.87;56.56
79698;SHT31;69168;42.708;23.286;2023-08-21T03:02:56;22.54;56.82
79698;SHT31;69168;42.708;23.286;2023-08-21T03:05:22;22.61;56.76
79698;SHT31;69168;42.708;23.286;2023-08-21T03:07:47;22.71;56.86
79698;SHT31;69168;42.708;23.286;2023-08-21T03:10:13;22.58;57.01
79698;SHT31;69168;42.708;23.286;2023-08-21T03:12:38;22.58;57.19
79698;SHT31;69168;42.708;23.286;2023-08-21T03:15:04;22.72;56.84
79698;SHT31;69168;42.708;23.286;2023-08-21T03:17:30;22.61;57.14
79698;SHT31;69168;42.708;23.286;2023-08-21T03:19:55;22.68;56.89
79698;SHT31;69168;42.708;23.286;2023-08-21T03:22:21;22.74;56.73
79698;SHT31;69168;42.708;23.286;2023-08-21T03:24:46;22.81;56.57
79698;SHT31;69168;42.708;23.286;2023-08-21T03:27:15;22.37;57.11
79698;SHT31;69168;42.708;23.286;2023-08-21T03:29:42;22.60;56.91
79698;SHT31;69168;42.708;23.286;2023-08-21T03:32:17;22.76;56.71
79698;SHT31;69168;42.708;23.286;2023-08-21T03:34:43;22.67;57.05
79698;SHT31;69168;42.708;23.286;2023-08-21T03:37:08;22.68;56.73
79698;SHT31;69168;42.708;23.286;2023-08-21T03:39:34;22.55;57.19
79698;SHT31;69168;42.708;23.286;2023-08-21T03:42:00;22.54;57.30
79698;SHT31;69168;42.708;23.286;2023-08-21T03:44:25;22.50;57.43
79698;SHT31;69168;42.708;23.286;2023-08-21T03:46:51;22.55;57.64
79698;SHT31;69168;42.708;23.286;2023-08-21T03:49:16;22.57;57.60
79698;SHT31;69168;42.708;23.286;2023-08-21T03:51:45;22.55;57.47
79698;SHT31;69168;42.708;23.286;2023-08-21T03:54:10;22.64;57.29
79698;SHT31;69168;42.708;23.286;2023-08-21T03:56:36;22.68;57.22
79698;SHT31;69168;42.708;23.286;2023-08-21T03:59:02;22.51;57.83
79698;SHT31;69168;42.708;23.286;2023-08-21T04:01:27;22.57;57.60
79698;SHT31;69168;42.708;23.286;2023-08-21T04:03:56;22.55;57.89
79698;SHT31;69168;42.708;23.286;2023-08-21T04:06:21;22.36;58.31
79698;SHT31;69168;42.708;23.286;2023-08-21T04:08:47;22.35;58.43
79698;SHT31;69168;42.708;23.286;2023-08-21T04:11:12;22.44;58.18
79698;SHT31;69168;42.708;23.286;2023-08-21T04:13:38;22.47;57.96
79698;SHT31;69168;42.708;23.286;2023-08-21T04:16:03;22.44;58.37
79698;SHT31;69168;42.708;23.286;2023-08-21T04:18:34;22.32;58.75
79698;SHT31;69168;42.708;23.286;2023-08-21T04:21:02;22.40;58.43
79698;SHT31;69168;42.708;23.286;2023-08-21T04:23:28;22.24;58.51
79698;SHT31;69168;42.708;23.286;2023-08-21T04:26:00;22.16;59.10
79698;SHT31;69168;42.708;23.286;2023-08-21T04:28:26;22.37;58.70
79698;SHT31;69168;42.708;23.286;2023-08-21T04:30:52;22.44;58.38
79698;SHT31;69168;42.708;23.286;2023-08-21T04:33:18;22.67;57.80
79698;SHT31;69168;42.708;23.286;2023-08-21T04:35:43;22.69;57.74
79698;SHT31;69168;42.708;23.286;2023-08-21T04:38:09;22.41;58.04
79698;SHT31;69168;42.708;23.286;2023-08-21T04:40:34;22.47;57.73
79698;SHT31;69168;42.708;23.286;2023-08-21T04:43:00;22.64;57.78
79698;SHT31;69168;42.708;23.286;2023-08-21T04:45:25;22.87;57.23
79698;SHT31;69168;42.708;23.286;2023-08-21T04:47:54;22.64;57.31
79698;SHT31;69168;42.708;23.286;2023-08-21T04:50:20;22.41;57.83
79698;SHT31;69168;42.708;23.286;2023-08-21T04:52:45;22.64;57.53
79698;SHT31;69168;42.708;23.286;2023-08-21T04:55:11;22.68;57.62
79698;SHT31;69168;42.708;23.286;2023-08-21T04:57:40;22.84;57.22
79698;SHT31;69168;42.708;23.286;2023-08-21T05:00:06;22.64;57.79
79698;SHT31;69168;42.708;23.286;2023-08-21T05:02:31;22.81;57.61
79698;SHT31;69168;42.708;23.286;2023-08-21T05:04:57;22.60;57.99
79698;SHT31;69168;42.708;23.286;2023-08-21T05:07:23;22.76;57.09
79698;SHT31;69168;42.708;23.286;2023-08-21T05:09:49;22.74;56.91
79698;SHT31;69168;42.708;23.286;2023-08-21T05:12:19;22.87;56.23
79698;SHT31;69168;42.708;23.286;2023-08-21T05:14:45;22.72;56.99
79698;SHT31;69168;42.708;23.286;2023-08-21T05:17:10;22.72;56.77
79698;SHT31;69168;42.708;23.286;2023-08-21T05:19:36;22.81;56.74
79698;SHT31;69168;42.708;23.286;2023-08-21T05:22:01;22.79;56.53
79698;SHT31;69168;42.708;23.286;2023-08-21T05:24:27;22.67;57.15
79698;SHT31;69168;42.708;23.286;2023-08-21T05:26:54;22.84;56.44
79698;SHT31;69168;42.708;23.286;2023-08-21T05:29:20;22.75;56.52
79698;SHT31;69168;42.708;23.286;2023-08-21T05:31:45;22.94;56.48
79698;SHT31;69168;42.708;23.286;2023-08-21T05:34:11;23.02;56.24
79698;SHT31;69168;42.708;23.286;2023-08-21T05:36:36;23.03;55.92
79698;SHT31;69168;42.708;23.286;2023-08-21T05:39:05;22.98;56.39
79698;SHT31;69168;42.708;23.286;2023-08-21T05:41:33;23.01;55.92
79698;SHT31;69168;42.708;23.286;2023-08-21T05:43:59;23.05;55.69
79698;SHT31;69168;42.708;23.286;2023-08-21T05:46:27;23.18;55.50
79698;SHT31;69168;42.708;23.286;2023-08-21T05:48:55;23.37;54.54
79698;SHT31;69168;42.708;23.286;2023-08-21T05:51:20;23.46;54.62
79698;SHT31;69168;42.708;23.286;2023-08-21T05:53:48;23.46;54.91
79698;SHT31;69168;42.708;23.286;2023-08-21T05:56:17;23.54;55.02
79698;SHT31;69168;42.708;23.286;2023-08-21T05:58:42;23.49;54.95
79698;SHT31;69168;42.708;23.286;2023-08-21T06:01:08;23.43;54.99
79698;SHT31;69168;42.708;23.286;2023-08-21T06:03:34;23.65;54.94
79698;SHT31;69168;42.708;23.286;2023-08-21T06:05:59;23.71;54.75
79698;SHT31;69168;42.708;23.286;2023-08-21T06:08:25;23.75;54.38
79698;SHT31;69168;42.708;23.286;2023-08-21T06:10:51;23.85;54.20
79698;SHT31;69168;42.708;23.286;2023-08-21T06:13:17;23.92;53.99
79698;SHT31;69168;42.708;23.286;2023-08-21T06:15:45;23.94;53.74
79698;SHT31;69168;42.708;23.286;2023-08-21T06:18:11;23.99;53.85
79698;SHT31;69168;42.708;23.286;2023-08-21T06:20:37;24.10;53.60
79698;SHT31;69168;42.708;23.286;2023-08-21T06:23:03;24.15;53.62
79698;SHT31;69168;42.708;23.286;2023-08-21T06:25:32;24.25;53.35
79698;SHT31;69168;42.708;23.286;2023-08-21T06:27:58;24.29;53.33
79698;SHT31;69168;42.708;23.286;2023-08-21T06:30:23;24.37;53.84
79698;SHT31;69168;42.708;23.286;2023-08-21T06:32:49;24.47;53.41
79698;SHT31;69168;42.708;23.286;2023-08-21T06:35:15;24.56;53.14
79698;SHT31;69168;42.708;23.286;2023-08-21T06:37:40;24.50;52.80
79698;SHT31;69168;42.708;23.286;2023-08-21T06:40:06;24.50;53.03
79698;SHT31;69168;42.708;23.286;2023-08-21T06:42:32;24.54;52.60
79698;SHT31;69168;42.708;23.286;2023-08-21T06:44:57;24.61;52.04
79698;SHT31;69168;42.708;23.286;2023-08-21T06:47:23;24.71;52.35
79698;SHT31;69168;42.708;23.286;2023-08-21T06:49:48;24.68;52.25
79698;SHT31;69168;42.708;23.286;2023-08-21T06:52:14;24.83;52.53
79698;SHT31;69168;42.708;23.286;2023-08-21T06:54:39;24.84;51.78
79698;SHT31;69168;42.708;23.286;2023-08-21T06:57:05;24.96;51.18
79698;SHT31;69168;42.708;23.286;2023-08-21T06:59:30;25.01;51.04
79698;SHT31;69168;42.708;23.286;2023-08-21T07:01:59;24.95;51.16
79698;SHT31;69168;42.708;23.286;2023-08-21T07:04:24;25.04;50.66
79698;SHT31;69168;42.708;23.286;2023-08-21T07:06:49;25.04;51.21
79698;SHT31;69168;42.708;23.286;2023-08-21T07:09:15;25.14;50.88
79698;SHT31;69168;42.708;23.286;2023-08-21T07:11:40;25.20;50.03
79698;SHT31;69168;42.708;23.286;2023-08-21T07:14:09;25.18;50.10
79698;SHT31;69168;42.708;23.286;2023-08-21T07:16:35;25.23;49.89
79698;SHT31;69168;42.708;23.286;2023-08-21T07:19:00;25.33;50.07
79698;SHT31;69168;42.708;23.286;2023-08-21T07:21:26;25.33;49.37
79698;SHT31;69168;42.708;23.286;2023-08-21T07:23:51;25.50;49.26
79698;SHT31;69168;42.708;23.286;2023-08-21T07:26:17;25.57;49.58
79698;SHT31;69168;42.708;23.286;2023-08-21T07:28:42;25.67;48.59
79698;SHT31;69168;42.708;23.286;2023-08-21T07:31:07;25.71;48.39
79698;SHT31;69168;42.708;23.286;2023-08-21T07:33:33;25.80;48.31
79698;SHT31;69168;42.708;23.286;2023-08-21T07:36:03;25.95;48.17
79698;SHT31;69168;42.708;23.286;2023-08-21T07:38:29;26.06;47.06
79698;SHT31;69168;42.708;23.286;2023-08-21T07:41:05;26.14;46.82
79698;SHT31;69168;42.708;23.286;2023-08-21T07:43:33;26.15;46.62
79698;SHT31;69168;42.708;23.286;2023-08-21T07:46:06;26.24;45.86
79698;SHT31;69168;42.708;23.286;2023-08-21T07:48:32;26.50;45.79
79698;SHT31;69168;42.708;23.286;2023-08-21T07:50:58;26.61;46.11
79698;SHT31;69168;42.708;23.286;2023-08-21T07:53:24;26.63;45.94
79698;SHT31;69168;42.708;23.286;2023-08-21T07:55:50;26.57;46.34
79698;SHT31;69168;42.708;23.286;2023-08-21T07:58:16;26.80;46.49
79698;SHT31;69168;42.708;23.286;2023-08-21T08:00:41;26.73;45.93
79698;SHT31;69168;42.708;23.286;2023-08-21T08:03:08;26.90;45.80
79698;SHT31;69168;42.708;23.286;2023-08-21T08:05:33;26.90;46.22
79698;SHT31;69168;42.708;23.286;2023-08-21T08:07:59;26.90;46.50
79698;SHT31;69168;42.708;23.286;2023-08-21T08:10:24;27.00;46.73
79698;SHT31;69168;42.708;23.286;2023-08-21T08:12:50;27.04;46.90
79698;SHT31;69168;42.708;23.286;2023-08-21T08:15:16;27.05;46.55
79698;SHT31;69168;42.708;23.286;2023-08-21T08:17:41;27.08;46.70
79698;SHT31;69168;42.708;23.286;2023-08-21T08:20:07;27.18;46.41
79698;SHT31;69168;42.708;23.286;2023-08-21T08:22:33;27.32;46.82
79698;SHT31;69168;42.708;23.286;2023-08-21T08:24:58;27.38;45.54
79698;SHT31;69168;42.708;23.286;2023-08-21T08:27:24;27.42;45.51
79698;SHT31;69168;42.708;23.286;2023-08-21T08:29:50;27.45;45.37
79698;SHT31;69168;42.708;23.286;2023-08-21T08:32:15;27.55;44.86
79698;SHT31;69168;42.708;23.286;2023-08-21T08:34:41;27.60;45.38
79698;SHT31;69168;42.708;23.286;2023-08-21T08:37:06;27.63;44.85
79698;SHT31;69168;42.708;23.286;2023-08-21T08:39:32;27.70;44.34
79698;SHT31;69168;42.708;23.286;2023-08-21T08:42:06;27.70;44.60
79698;SHT31;69168;42.708;23.286;2023-08-21T08:44:35;27.69;44.69
79698;SHT31;69168;42.708;23.286;2023-08-21T08:47:01;27.70;44.59
79698;SHT31;69168;42.708;23.286;2023-08-21T08:49:27;27.79;45.17
79698;SHT31;69168;42.708;23.286;2023-08-21T08:51:53;27.77;45.74
79698;SHT31;69168;42.708;23.286;2023-08-21T08:54:21;27.94;44.69
79698;SHT31;69168;42.708;23.286;2023-08-21T08:56:47;28.00;45.18
79698;SHT31;69168;42.708;23.286;2023-08-21T08:59:13;27.97;45.17
79698;SHT31;69168;42.708;23.286;2023-08-21T09:01:40;28.25;43.28
79698;SHT31;69168;42.708;23.286;2023-08-21T09:04:06;28.20;43.73
79698;SHT31;69168;42.708;23.286;2023-08-21T09:06:32;28.17;44.00
79698;SHT31;69168;42.708;23.286;2023-08-21T09:08:59;28.51;42.33
79698;SHT31;69168;42.708;23.286;2023-08-21T09:11:25;28.69;41.12
79698;SHT31;69168;42.708;23.286;2023-08-21T09:13:52;28.44;42.69
79698;SHT31;69168;42.708;23.286;2023-08-21T09:16:18;28.39;43.06
79698;SHT31;69168;42.708;23.286;2023-08-21T09:18:48;28.47;43.02
79698;SHT31;69168;42.708;23.286;2023-08-21T09:21:21;28.55;40.94
79698;SHT31;69168;42.708;23.286;2023-08-21T09:23:48;28.53;41.85
79698;SHT31;69168;42.708;23.286;2023-08-21T09:26:23;28.55;41.92
79698;SHT31;69168;42.708;23.286;2023-08-21T09:28:50;28.67;40.93
79698;SHT31;69168;42.708;23.286;2023-08-21T09:31:17;28.76;41.11
79698;SHT31;69168;42.708;23.286;2023-08-21T09:33:55;28.83;40.67
79698;SHT31;69168;42.708;23.286;2023-08-21T09:36:21;29.08;40.15
79698;SHT31;69168;42.708;23.286;2023-08-21T09:38:47;28.94;40.58
79698;SHT31;69168;42.708;23.286;2023-08-21T09:41:13;28.97;40.49
79698;SHT31;69168;42.708;23.286;2023-08-21T09:43:42;29.08;40.74
79698;SHT31;69168;42.708;23.286;2023-08-21T09:46:08;29.30;39.38
79698;SHT31;69168;42.708;23.286;2023-08-21T09:48:34;29.35;40.01
79698;SHT31;69168;42.708;23.286;2023-08-21T09:51:00;29.32;39.56
79698;SHT31;69168;42.708;23.286;2023-08-21T09:53:29;29.48;39.20
79698;SHT31;69168;42.708;23.286;2023-08-21T09:55:55;29.63;38.00
79698;SHT31;69168;42.708;23.286;2023-08-21T09:58:21;29.62;39.03
79698;SHT31;69168;42.708;23.286;2023-08-21T10:00:48;29.65;39.48
79698;SHT31;69168;42.708;23.286;2023-08-21T10:03:17;29.93;38.39
79698;SHT31;69168;42.708;23.286;2023-08-21T10:05:43;30.09;37.95
79698;SHT31;69168;42.708;23.286;2023-08-21T10:08:08;30.07;38.35
79698;SHT31;69168;42.708;23.286;2023-08-21T10:10:36;30.13;38.27
79698;SHT31;69168;42.708;23.286;2023-08-21T10:13:03;30.20;37.67
79698;SHT31;69168;42.708;23.286;2023-08-21T10:15:29;30.24;37.38
79698;SHT31;69168;42.708;23.286;2023-08-21T10:17:56;30.37;36.89
79698;SHT31;69168;42.708;23.286;2023-08-21T10:20:25;30.48;36.59
79698;SHT31;69168;42.708;23.286;2023-08-21T10:22:55;30.62;36.26
79698;SHT31;69168;42.708;23.286;2023-08-21T10:25:21;30.75;36.54
79698;SHT31;69168;42.708;23.286;2023-08-21T10:27:53;30.71;37.00
79698;SHT31;69168;42.708;23.286;2023-08-21T10:30:26;30.93;36.54
79698;SHT31;69168;42.708;23.286;2023-08-21T10:32:54;31.04;36.36
79698;SHT31;69168;42.708;23.286;2023-08-21T10:35:21;31.30;35.11
79698;SHT31;69168;42.708;23.286;2023-08-21T10:38:15;31.48;35.45
79698;SHT31;69168;42.708;23.286;2023-08-21T10:41:04;31.41;35.15
79698;SHT31;69168;42.708;23.286;2023-08-21T10:43:45;31.54;35.09
79698;SHT31;69168;42.708;23.286;2023-08-21T10:46:11;31.67;35.17
79698;SHT31;69168;42.708;23.286;2023-08-21T10:48:38;31.86;34.60
79698;SHT31;69168;42.708;23.286;2023-08-21T10:51:06;31.89;34.37
79698;SHT31;69168;42.708;23.286;2023-08-21T10:53:33;32.10;32.37
79698;SHT31;69168;42.708;23.286;2023-08-21T10:56:02;32.29;32.90
79698;SHT31;69168;42.708;23.286;2023-08-21T10:58:34;32.40;34.01
79698;SHT31;69168;42.708;23.286;2023-08-21T11:00:59;32.36;34.12
79698;SHT31;69168;42.708;23.286;2023-08-21T11:03:25;32.37;33.64
79698;SHT31;69168;42.708;23.286;2023-08-21T11:06:04;32.26;33.48
79698;SHT31;69168;42.708;23.286;2023-08-21T11:08:32;32.29;33.10
79698;SHT31;69168;42.708;23.286;2023-08-21T11:10:58;32.47;32.50
79698;SHT31;69168;42.708;23.286;2023-08-21T11:13:24;32.82;31.28
79698;SHT31;69168;42.708;23.286;2023-08-21T11:15:58;33.03;30.65
79698;SHT31;69168;42.708;23.286;2023-08-21T11:18:29;33.15;30.88
79698;SHT31;69168;42.708;23.286;2023-08-21T11:21:03;33.34;30.70
79698;SHT31;69168;42.708;23.286;2023-08-21T11:23:35;33.74;29.82
79698;SHT31;69168;42.708;23.286;2023-08-21T11:26:02;33.78;29.91
79698;SHT31;69168;42.708;23.286;2023-08-21T11:28:29;33.87;29.06
79698;SHT31;69168;42.708;23.286;2023-08-21T11:30:56;33.97;29.36
79698;SHT31;69168;42.708;23.286;2023-08-21T11:33:22;34.02;29.23
79698;SHT31;69168;42.708;23.286;2023-08-21T11:35:48;34.19;28.98
79698;SHT31;69168;42.708;23.286;2023-08-21T11:38:16;34.42;28.53
79698;SHT31;69168;42.708;23.286;2023-08-21T11:40:42;34.64;28.23
79698;SHT31;69168;42.708;23.286;2023-08-21T11:43:07;34.98;27.85
79698;SHT31;69168;42.708;23.286;2023-08-21T11:45:34;35.03;27.98
79698;SHT31;69168;42.708;23.286;2023-08-21T11:48:00;34.97;27.96
79698;SHT31;69168;42.708;23.286;2023-08-21T11:50:26;35.21;28.40
79698;SHT31;69168;42.708;23.286;2023-08-21T11:52:53;35.42;27.75
79698;SHT31;69168;42.708;23.286;2023-08-21T11:55:20;35.46;27.94
79698;SHT31;69168;42.708;23.286;2023-08-21T11:57:49;35.73;28.59
79698;SHT31;69168;42.708;23.286;2023-08-21T12:00:16;35.15;27.05
79698;SHT31;69168;42.708;23.286;2023-08-21T12:02:54;35.08;28.22
79698;SHT31;69168;42.708;23.286;2023-08-21T12:05:21;35.27;28.05
79698;SHT31;69168;42.708;23.286;2023-08-21T12:07:46;35.48;27.87
79698;SHT31;69168;42.708;23.286;2023-08-21T12:10:12;35.83;28.46
79698;SHT31;69168;42.708;23.286;2023-08-21T12:12:37;36.39;26.33
79698;SHT31;69168;42.708;23.286;2023-08-21T12:15:03;36.65;26.79
79698;SHT31;69168;42.708;23.286;2023-08-21T12:17:29;36.64;26.11
79698;SHT31;69168;42.708;23.286;2023-08-21T12:19:54;36.92;26.02
79698;SHT31;69168;42.708;23.286;2023-08-21T12:22:20;37.13;25.91
79698;SHT31;69168;42.708;23.286;2023-08-21T12:24:45;37.19;24.95
79698;SHT31;69168;42.708;23.286;2023-08-21T12:27:11;37.09;24.76
79698;SHT31;69168;42.708;23.286;2023-08-21T12:29:36;37.48;24.45
79698;SHT31;69168;42.708;23.286;2023-08-21T12:32:02;37.83;24.23
79698;SHT31;69168;42.708;23.286;2023-08-21T12:34:28;37.64;24.82
79698;SHT31;69168;42.708;23.286;2023-08-21T12:36:54;37.61;24.92
79698;SHT31;69168;42.708;23.286;2023-08-21T12:39:19;37.75;24.76
79698;SHT31;69168;42.708;23.286;2023-08-21T12:41:45;38.01;24.81
79698;SHT31;69168;42.708;23.286;2023-08-21T12:44:11;38.30;24.51
79698;SHT31;69168;42.708;23.286;2023-08-21T12:46:38;38.85;24.20
79698;SHT31;69168;42.708;23.286;2023-08-21T12:49:03;39.23;23.80
79698;SHT31;69168;42.708;23.286;2023-08-21T12:51:29;39.61;22.67
79698;SHT31;69168;42.708;23.286;2023-08-21T12:53:58;39.13;23.14
79698;SHT31;69168;42.708;23.286;2023-08-21T12:56:23;38.91;23.73
79698;SHT31;69168;42.708;23.286;2023-08-21T12:58:49;39.19;23.10
79698;SHT31;69168;42.708;23.286;2023-08-21T13:01:15;39.63;22.56
79698;SHT31;69168;42.708;23.286;2023-08-21T13:03:46;38.63;23.55
79698;SHT31;69168;42.708;23.286;2023-08-21T13:06:12;37.86;24.26
79698;SHT31;69168;42.708;23.286;2023-08-21T13:08:38;38.05;23.62
79698;SHT31;69168;42.708;23.286;2023-08-21T13:11:04;37.29;24.59
79698;SHT31;69168;42.708;23.286;2023-08-21T13:13:31;37.66;24.73
79698;SHT31;69168;42.708;23.286;2023-08-21T13:15:56;37.47;24.98
79698;SHT31;69168;42.708;23.286;2023-08-21T13:18:22;37.82;24.33
79698;SHT31;69168;42.708;23.286;2023-08-21T13:20:47;38.65;23.30
79698;SHT31;69168;42.708;23.286;2023-08-21T13:23:13;39.03;22.74
79698;SHT31;69168;42.708;23.286;2023-08-21T13:25:38;39.35;22.37
79698;SHT31;69168;42.708;23.286;2023-08-21T13:28:04;39.50;22.28
79698;SHT31;69168;42.708;23.286;2023-08-21T13:30:30;39.88;22.00
79698;SHT31;69168;42.708;23.286;2023-08-21T13:32:56;40.12;21.65
79698;SHT31;69168;42.708;23.286;2023-08-21T13:35:22;39.91;21.66
79698;SHT31;69168;42.708;23.286;2023-08-21T13:37:48;39.64;22.21
79698;SHT31;69168;42.708;23.286;2023-08-21T13:40:13;39.43;22.72
79698;SHT31;69168;42.708;23.286;2023-08-21T13:42:43;40.07;21.60
79698;SHT31;69168;42.708;23.286;2023-08-21T13:45:10;40.28;21.19
79698;SHT31;69168;42.708;23.286;2023-08-21T13:47:41;39.84;21.62
79698;SHT31;69168;42.708;23.286;2023-08-21T13:50:07;40.15;21.24
79698;SHT31;69168;42.708;23.286;2023-08-21T13:52:34;40.36;20.93
79698;SHT31;69168;42.708;23.286;2023-08-21T13:55:01;40.52;20.91
79698;SHT31;69168;42.708;23.286;2023-08-21T13:57:27;40.29;21.29
79698;SHT31;69168;42.708;23.286;2023-08-21T13:59:53;40.31;20.86
79698;SHT31;69168;42.708;23.286;2023-08-21T14:02:19;39.91;21.68
79698;SHT31;69168;42.708;23.286;2023-08-21T14:04:45;40.07;21.77
79698;SHT31;69168;42.708;23.286;2023-08-21T14:07:12;40.11;21.68
79698;SHT31;69168;42.708;23.286;2023-08-21T14:09:38;39.98;21.84
79698;SHT31;69168;42.708;23.286;2023-08-21T14:12:04;40.15;21.99
79698;SHT31;69168;42.708;23.286;2023-08-21T14:14:29;39.94;22.40
79698;SHT31;69168;42.708;23.286;2023-08-21T14:16:55;39.92;22.29
79698;SHT31;69168;42.708;23.286;2023-08-21T14:19:20;40.12;22.14
79698;SHT31;69168;42.708;23.286;2023-08-21T14:21:46;40.52;21.56
79698;SHT31;69168;42.708;23.286;2023-08-21T14:24:11;40.08;22.38
79698;SHT31;69168;42.708;23.286;2023-08-21T14:26:37;39.95;22.49
79698;SHT31;69168;42.708;23.286;2023-08-21T14:29:05;39.66;22.73
79698;SHT31;69168;42.708;23.286;2023-08-21T14:31:30;39.85;22.35
79698;SHT31;69168;42.708;23.286;2023-08-21T14:33:56;38.90;23.67
79698;SHT31;69168;42.708;23.286;2023-08-21T14:36:21;38.54;23.91
79698;SHT31;69168;42.708;23.286;2023-08-21T14:38:47;37.55;24.81
79698;SHT31;69168;42.708;23.286;2023-08-21T14:41:12;37.99;24.47
79698;SHT31;69168;42.708;23.286;2023-08-21T14:43:38;38.38;23.82
79698;SHT31;69168;42.708;23.286;2023-08-21T14:46:03;37.81;24.44
79698;SHT31;69168;42.708;23.286;2023-08-21T14:48:29;37.61;24.37
79698;SHT31;69168;42.708;23.286;2023-08-21T14:50:55;37.04;24.93
79698;SHT31;69168;42.708;23.286;2023-08-21T14:53:20;37.02;24.62
79698;SHT31;69168;42.708;23.286;2023-08-21T14:55:46;36.86;24.93
79698;SHT31;69168;42.708;23.286;2023-08-21T14:58:11;36.45;25.77
79698;SHT31;69168;42.708;23.286;2023-08-21T15:00:37;36.16;25.60
79698;SHT31;69168;42.708;23.286;2023-08-21T15:03:02;36.13;25.60
79698;SHT31;69168;42.708;23.286;2023-08-21T15:05:28;35.97;26.24
79698;SHT31;69168;42.708;23.286;2023-08-21T15:07:54;36.05;26.75
79698;SHT31;69168;42.708;23.286;2023-08-21T15:10:20;36.31;26.20
79698;SHT31;69168;42.708;23.286;2023-08-21T15:12:46;36.35;25.80